sensor_id;sensor_type;location;lat;lon;timestamp;P1;durP1;ratioP1;P2;durP2;ratioP2
71558;SDS011;59382;43.852;25.952;2023-02-21T00:01:07;9.35;;;1.30;;
71558;SDS011;59382;43.852;25.952;2023-02-21T00:03:52;3.35;;;1.58;;
71558;SDS011;59382;43.852;25.952;2023-02-21T00:06:36;1.65;;;1.30;;
71558;SDS011;59382;43.852;25.952;2023-02-21T00:09:20;1.98;;;1.27;;
71558;SDS011;59382;43.852;25.952;2023-02-21T00:12:04;2.88;;;1.65;;
71558;SDS011;59382;43.852;25.952;2023-02-21T00:14:49;2.30;;;1.67;;
71558;SDS011;59382;43.852;25.952;2023-02-21T00:17:33;2.28;;;1.15;;
71558;SDS011;59382;43.852;25.952;2023-02-21T00:20:17;2.13;;;1.30;;
71558;SDS011;59382;43.852;25.952;2023-02-21T00:23:01;1.75;;;1.00;;
71558;SDS011;59382;43.852;25.952;2023-02-21T00:25:45;2.20;;;1.92;;
71558;SDS011;59382;43.852;25.952;2023-02-21T00:28:31;5.35;;;1.13;;
71558;SDS011;59382;43.852;25.952;2023-02-21T00:31:17;2.00;;;1.35;;
71558;SDS011;59382;43.852;25.952;2023-02-21T00:34:01;1.73;;;1.40;;
71558;SDS011;59382;43.852;25.952;2023-02-21T00:36:46;1.33;;;1.23;;
71558;SDS011;59382;43.852;25.952;2023-02-21T00:39:30;2.03;;;1.42;;
71558;SDS011;59382;43.852;25.952;2023-02-21T00:42:14;2.28;;;1.48;;
71558;SDS011;59382;43.852;25.952;2023-02-21T00:44:58;4.18;;;1.65;;
71558;SDS011;59382;43.852;25.952;2023-02-21T00:47:42;2.63;;;1.45;;
71558;SDS011;59382;43.852;25.952;2023-02-21T00:50:26;2.08;;;1.40;;
71558;SDS011;59382;43.852;25.952;2023-02-21T00:53:10;1.30;;;1.20;;
71558;SDS011;59382;43.852;25.952;2023-02-21T00:55:54;2.83;;;1.42;;
71558;SDS011;59382;43.852;25.952;2023-02-21T00:58:38;2.38;;;1.50;;
71558;SDS011;59382;43.852;25.952;2023-02-21T01:01:22;1.90;;;1.35;;
71558;SDS011;59382;43.852;25.952;2023-02-21T01:04:06;1.88;;;1.20;;
71558;SDS011;59382;43.852;25.952;2023-02-21T01:06:51;3.83;;;1.52;;
71558;SDS011;59382;43.852;25.952;2023-02-21T01:09:35;3.03;;;1.38;;
71558;SDS011;59382;43.852;25.952;2023-02-21T01:12:19;1.90;;;1.30;;
71558;SDS011;59382;43.852;25.952;2023-02-21T01:15:04;3.65;;;1.42;;
71558;SDS011;59382;43.852;25.952;2023-02-21T01:17:49;2.53;;;1.00;;
71558;SDS011;59382;43.852;25.952;2023-02-21T01:20:33;1.77;;;1.17;;
71558;SDS011;59382;43.852;25.952;2023-02-21T01:23:16;1.60;;;1.08;;
71558;SDS011;59382;43.852;25.952;2023-02-21T01:26:01;2.00;;;1.17;;
71558;SDS011;59382;43.852;25.952;2023-02-21T01:28:46;1.83;;;1.30;;
71558;SDS011;59382;43.852;25.952;2023-02-21T01:31:30;1.58;;;1.48;;
71558;SDS011;59382;43.852;25.952;2023-02-21T01:34:14;3.33;;;1.10;;
71558;SDS011;59382;43.852;25.952;2023-02-21T01:36:58;1.92;;;1.30;;
71558;SDS011;59382;43.852;25.952;2023-02-21T01:39:42;1.92;;;1.70;;
71558;SDS011;59382;43.852;25.952;2023-02-21T01:42:26;1.25;;;1.13;;
71558;SDS011;59382;43.852;25.952;2023-02-21T01:48:07;1.52;;;1.42;;
71558;SDS011;59382;43.852;25.952;2023-02-21T01:50:56;2.72;;;1.42;;
71558;SDS011;59382;43.852;25.952;2023-02-21T01:53:46;1.20;;;1.10;;
71558;SDS011;59382;43.852;25.952;2023-02-21T01:56:30;1.92;;;1.58;;
71558;SDS011;59382;43.852;25.952;2023-02-21T01:59:15;1.73;;;1.30;;
71558;SDS011;59382;43.852;25.952;2023-02-21T02:04:49;1.30;;;1.20;;
71558;SDS011;59382;43.852;25.952;2023-02-21T02:07:36;1.85;;;1.35;;
71558;SDS011;59382;43.852;25.952;2023-02-21T02:10:20;2.40;;;1.30;;
71558;SDS011;59382;43.852;25.952;2023-02-21T02:15:44;4.03;;;1.10;;
71558;SDS011;59382;43.852;25.952;2023-02-21T02:27:17;1.23;;;0.93;;
71558;SDS011;59382;43.852;25.952;2023-02-21T02:40:30;1.50;;;0.93;;
71558;SDS011;59382;43.852;25.952;2023-02-21T02:48:13;1.23;;;0.95;;
71558;SDS011;59382;43.852;25.952;2023-02-21T02:50:45;1.02;;;0.93;;
71558;SDS011;59382;43.852;25.952;2023-02-21T02:53:14;2.92;;;1.30;;
71558;SDS011;59382;43.852;25.952;2023-02-21T02:58:18;2.08;;;1.50;;
71558;SDS011;59382;43.852;25.952;2023-02-21T03:01:10;1.30;;;1.20;;
71558;SDS011;59382;43.852;25.952;2023-02-21T03:09:38;2.42;;;1.20;;
71558;SDS011;59382;43.852;25.952;2023-02-21T03:12:43;2.47;;;1.42;;
71558;SDS011;59382;43.852;25.952;2023-02-21T03:17:41;11.93;;;1.77;;
71558;SDS011;59382;43.852;25.952;2023-02-21T03:20:11;2.85;;;1.67;;
71558;SDS011;59382;43.852;25.952;2023-02-21T03:22:39;1.80;;;1.10;;
71558;SDS011;59382;43.852;25.952;2023-02-21T03:25:09;1.63;;;1.50;;
71558;SDS011;59382;43.852;25.952;2023-02-21T03:27:37;1.48;;;1.30;;
71558;SDS011;59382;43.852;25.952;2023-02-21T03:30:04;2.40;;;1.35;;
71558;SDS011;59382;43.852;25.952;2023-02-21T03:35:15;2.03;;;1.63;;
71558;SDS011;59382;43.852;25.952;2023-02-21T03:37:42;3.15;;;1.42;;
71558;SDS011;59382;43.852;25.952;2023-02-21T03:40:10;2.00;;;1.35;;
71558;SDS011;59382;43.852;25.952;2023-02-21T03:42:48;1.83;;;1.60;;
71558;SDS011;59382;43.852;25.952;2023-02-21T03:45:14;1.25;;;0.98;;
71558;SDS011;59382;43.852;25.952;2023-02-21T03:47:40;1.48;;;1.35;;
71558;SDS011;59382;43.852;25.952;2023-02-21T03:50:05;1.90;;;1.42;;
71558;SDS011;59382;43.852;25.952;2023-02-21T03:52:32;2.95;;;1.70;;
71558;SDS011;59382;43.852;25.952;2023-02-21T03:54:57;7.82;;;1.48;;
71558;SDS011;59382;43.852;25.952;2023-02-21T03:57:23;2.05;;;1.20;;
71558;SDS011;59382;43.852;25.952;2023-02-21T03:59:49;2.38;;;1.60;;
71558;SDS011;59382;43.852;25.952;2023-02-21T04:02:14;3.08;;;1.35;;
71558;SDS011;59382;43.852;25.952;2023-02-21T04:04:40;3.58;;;1.50;;
71558;SDS011;59382;43.852;25.952;2023-02-21T04:07:05;6.78;;;1.45;;
71558;SDS011;59382;43.852;25.952;2023-02-21T04:09:32;1.52;;;1.17;;
71558;SDS011;59382;43.852;25.952;2023-02-21T04:11:57;1.50;;;1.38;;
71558;SDS011;59382;43.852;25.952;2023-02-21T04:14:23;1.83;;;1.33;;
71558;SDS011;59382;43.852;25.952;2023-02-21T04:16:49;3.22;;;1.25;;
71558;SDS011;59382;43.852;25.952;2023-02-21T04:19:15;1.60;;;1.25;;
71558;SDS011;59382;43.852;25.952;2023-02-21T04:21:41;1.35;;;1.05;;
71558;SDS011;59382;43.852;25.952;2023-02-21T04:24:07;5.38;;;1.40;;
71558;SDS011;59382;43.852;25.952;2023-02-21T04:26:32;2.33;;;1.67;;
71558;SDS011;59382;43.852;25.952;2023-02-21T04:28:59;3.38;;;1.35;;
71558;SDS011;59382;43.852;25.952;2023-02-21T04:31:25;3.90;;;1.50;;
71558;SDS011;59382;43.852;25.952;2023-02-21T04:33:50;4.75;;;1.40;;
71558;SDS011;59382;43.852;25.952;2023-02-21T04:36:16;1.58;;;1.10;;
71558;SDS011;59382;43.852;25.952;2023-02-21T04:38:41;1.80;;;1.17;;
71558;SDS011;59382;43.852;25.952;2023-02-21T04:41:07;1.60;;;1.30;;
71558;SDS011;59382;43.852;25.952;2023-02-21T04:43:32;3.63;;;1.33;;
71558;SDS011;59382;43.852;25.952;2023-02-21T04:45:58;1.75;;;1.38;;
71558;SDS011;59382;43.852;25.952;2023-02-21T04:48:26;2.22;;;1.30;;
71558;SDS011;59382;43.852;25.952;2023-02-21T04:50:51;2.85;;;1.55;;
71558;SDS011;59382;43.852;25.952;2023-02-21T04:53:17;1.73;;;1.30;;
71558;SDS011;59382;43.852;25.952;2023-02-21T04:55:43;3.10;;;2.13;;
71558;SDS011;59382;43.852;25.952;2023-02-21T04:58:08;3.85;;;1.77;;
71558;SDS011;59382;43.852;25.952;2023-02-21T05:00:34;1.88;;;1.55;;
71558;SDS011;59382;43.852;25.952;2023-02-21T05:02:59;3.83;;;1.38;;
71558;SDS011;59382;43.852;25.952;2023-02-21T05:05:25;4.95;;;1.65;;
71558;SDS011;59382;43.852;25.952;2023-02-21T05:07:51;2.47;;;1.60;;
71558;SDS011;59382;43.852;25.952;2023-02-21T05:10:16;12.88;;;2.00;;
71558;SDS011;59382;43.852;25.952;2023-02-21T05:12:42;1.67;;;1.30;;
71558;SDS011;59382;43.852;25.952;2023-02-21T05:15:09;3.08;;;1.10;;
71558;SDS011;59382;43.852;25.952;2023-02-21T05:17:36;2.17;;;1.40;;
71558;SDS011;59382;43.852;25.952;2023-02-21T05:20:02;9.75;;;1.50;;
71558;SDS011;59382;43.852;25.952;2023-02-21T05:22:28;13.43;;;2.63;;
71558;SDS011;59382;43.852;25.952;2023-02-21T05:24:54;2.95;;;1.58;;
71558;SDS011;59382;43.852;25.952;2023-02-21T05:27:19;4.57;;;1.67;;
71558;SDS011;59382;43.852;25.952;2023-02-21T05:29:50;7.28;;;1.35;;
71558;SDS011;59382;43.852;25.952;2023-02-21T05:32:18;6.38;;;2.28;;
71558;SDS011;59382;43.852;25.952;2023-02-21T05:34:45;2.35;;;1.27;;
71558;SDS011;59382;43.852;25.952;2023-02-21T05:37:15;6.03;;;1.65;;
71558;SDS011;59382;43.852;25.952;2023-02-21T05:39:57;11.87;;;2.17;;
71558;SDS011;59382;43.852;25.952;2023-02-21T05:42:23;6.97;;;1.77;;
71558;SDS011;59382;43.852;25.952;2023-02-21T05:44:49;7.80;;;2.00;;
71558;SDS011;59382;43.852;25.952;2023-02-21T05:47:16;5.20;;;1.70;;
71558;SDS011;59382;43.852;25.952;2023-02-21T05:49:42;5.43;;;2.30;;
71558;SDS011;59382;43.852;25.952;2023-02-21T05:52:11;8.70;;;2.35;;
71558;SDS011;59382;43.852;25.952;2023-02-21T05:54:39;6.28;;;3.13;;
71558;SDS011;59382;43.852;25.952;2023-02-21T05:57:05;8.50;;;2.40;;
71558;SDS011;59382;43.852;25.952;2023-02-21T05:59:31;10.25;;;2.70;;
71558;SDS011;59382;43.852;25.952;2023-02-21T06:01:56;8.82;;;1.90;;
71558;SDS011;59382;43.852;25.952;2023-02-21T06:04:22;9.73;;;3.22;;
71558;SDS011;59382;43.852;25.952;2023-02-21T06:06:49;8.93;;;3.15;;
71558;SDS011;59382;43.852;25.952;2023-02-21T06:09:16;5.45;;;2.38;;
71558;SDS011;59382;43.852;25.952;2023-02-21T06:11:43;15.13;;;3.00;;
71558;SDS011;59382;43.852;25.952;2023-02-21T06:14:16;10.35;;;3.33;;
71558;SDS011;59382;43.852;25.952;2023-02-21T06:16:44;16.02;;;2.92;;
71558;SDS011;59382;43.852;25.952;2023-02-21T06:19:11;21.52;;;3.25;;
71558;SDS011;59382;43.852;25.952;2023-02-21T06:21:40;13.65;;;2.42;;
71558;SDS011;59382;43.852;25.952;2023-02-21T06:24:06;11.07;;;2.75;;
71558;SDS011;59382;43.852;25.952;2023-02-21T06:26:32;13.93;;;2.78;;
71558;SDS011;59382;43.852;25.952;2023-02-21T06:28:58;4.63;;;2.15;;
71558;SDS011;59382;43.852;25.952;2023-02-21T06:31:23;5.55;;;1.90;;
71558;SDS011;59382;43.852;25.952;2023-02-21T06:33:49;20.70;;;2.88;;
71558;SDS011;59382;43.852;25.952;2023-02-21T06:36:16;6.60;;;2.25;;
71558;SDS011;59382;43.852;25.952;2023-02-21T06:38:45;4.38;;;1.92;;
71558;SDS011;59382;43.852;25.952;2023-02-21T06:41:14;9.18;;;2.30;;
71558;SDS011;59382;43.852;25.952;2023-02-21T06:43:41;8.88;;;2.28;;
71558;SDS011;59382;43.852;25.952;2023-02-21T06:46:06;8.57;;;3.25;;
71558;SDS011;59382;43.852;25.952;2023-02-21T06:48:32;3.55;;;2.30;;
71558;SDS011;59382;43.852;25.952;2023-02-21T06:50:57;5.97;;;2.90;;
71558;SDS011;59382;43.852;25.952;2023-02-21T06:53:23;19.67;;;3.67;;
71558;SDS011;59382;43.852;25.952;2023-02-21T06:55:48;11.07;;;2.35;;
71558;SDS011;59382;43.852;25.952;2023-02-21T06:58:14;7.13;;;2.72;;
71558;SDS011;59382;43.852;25.952;2023-02-21T07:00:39;5.90;;;2.75;;
71558;SDS011;59382;43.852;25.952;2023-02-21T07:03:05;3.97;;;2.25;;
71558;SDS011;59382;43.852;25.952;2023-02-21T07:05:33;4.82;;;2.78;;
71558;SDS011;59382;43.852;25.952;2023-02-21T07:08:01;18.80;;;3.03;;
71558;SDS011;59382;43.852;25.952;2023-02-21T07:10:26;6.47;;;2.55;;
71558;SDS011;59382;43.852;25.952;2023-02-21T07:12:52;3.85;;;2.22;;
71558;SDS011;59382;43.852;25.952;2023-02-21T07:15:18;13.48;;;3.85;;
71558;SDS011;59382;43.852;25.952;2023-02-21T07:17:44;6.47;;;2.65;;
71558;SDS011;59382;43.852;25.952;2023-02-21T07:20:09;9.10;;;2.78;;
71558;SDS011;59382;43.852;25.952;2023-02-21T07:22:35;7.15;;;2.38;;
71558;SDS011;59382;43.852;25.952;2023-02-21T07:25:01;6.22;;;2.60;;
71558;SDS011;59382;43.852;25.952;2023-02-21T07:27:26;4.93;;;2.22;;
71558;SDS011;59382;43.852;25.952;2023-02-21T07:29:52;7.28;;;2.75;;
71558;SDS011;59382;43.852;25.952;2023-02-21T07:32:17;7.55;;;2.40;;
71558;SDS011;59382;43.852;25.952;2023-02-21T07:34:43;5.88;;;2.38;;
71558;SDS011;59382;43.852;25.952;2023-02-21T07:37:09;6.00;;;2.47;;
71558;SDS011;59382;43.852;25.952;2023-02-21T07:39:35;6.82;;;2.70;;
71558;SDS011;59382;43.852;25.952;2023-02-21T07:42:02;4.13;;;2.30;;
71558;SDS011;59382;43.852;25.952;2023-02-21T07:44:28;3.78;;;2.30;;
71558;SDS011;59382;43.852;25.952;2023-02-21T07:46:55;7.38;;;2.80;;
71558;SDS011;59382;43.852;25.952;2023-02-21T07:49:22;7.32;;;2.70;;
71558;SDS011;59382;43.852;25.952;2023-02-21T07:51:48;5.47;;;2.60;;
71558;SDS011;59382;43.852;25.952;2023-02-21T07:54:14;12.88;;;2.38;;
71558;SDS011;59382;43.852;25.952;2023-02-21T07:56:41;7.68;;;2.10;;
71558;SDS011;59382;43.852;25.952;2023-02-21T07:59:08;11.63;;;2.42;;
71558;SDS011;59382;43.852;25.952;2023-02-21T08:01:33;11.23;;;1.95;;
71558;SDS011;59382;43.852;25.952;2023-02-21T08:03:59;6.03;;;2.25;;
71558;SDS011;59382;43.852;25.952;2023-02-21T08:06:24;26.55;;;2.90;;
71558;SDS011;59382;43.852;25.952;2023-02-21T08:08:50;2.90;;;2.17;;
71558;SDS011;59382;43.852;25.952;2023-02-21T08:11:15;7.72;;;2.00;;
71558;SDS011;59382;43.852;25.952;2023-02-21T08:13:41;10.57;;;2.83;;
71558;SDS011;59382;43.852;25.952;2023-02-21T08:16:06;8.85;;;2.90;;
71558;SDS011;59382;43.852;25.952;2023-02-21T08:18:32;4.18;;;2.00;;
71558;SDS011;59382;43.852;25.952;2023-02-21T08:20:57;6.30;;;1.83;;
71558;SDS011;59382;43.852;25.952;2023-02-21T08:23:23;5.60;;;1.70;;
71558;SDS011;59382;43.852;25.952;2023-02-21T08:25:48;1.80;;;1.50;;
71558;SDS011;59382;43.852;25.952;2023-02-21T08:28:14;4.60;;;2.65;;
71558;SDS011;59382;43.852;25.952;2023-02-21T08:30:41;2.33;;;1.77;;
71558;SDS011;59382;43.852;25.952;2023-02-21T08:33:07;6.18;;;2.05;;
71558;SDS011;59382;43.852;25.952;2023-02-21T08:35:33;3.85;;;1.90;;
71558;SDS011;59382;43.852;25.952;2023-02-21T08:37:58;8.20;;;2.38;;
71558;SDS011;59382;43.852;25.952;2023-02-21T08:40:31;9.20;;;1.92;;
71558;SDS011;59382;43.852;25.952;2023-02-21T08:42:57;10.95;;;2.00;;
71558;SDS011;59382;43.852;25.952;2023-02-21T08:45:24;6.70;;;1.88;;
71558;SDS011;59382;43.852;25.952;2023-02-21T08:47:51;7.85;;;1.90;;
71558;SDS011;59382;43.852;25.952;2023-02-21T08:50:18;12.60;;;2.70;;
71558;SDS011;59382;43.852;25.952;2023-02-21T08:52:45;12.77;;;2.05;;
71558;SDS011;59382;43.852;25.952;2023-02-21T08:55:11;11.55;;;2.30;;
71558;SDS011;59382;43.852;25.952;2023-02-21T08:57:37;13.07;;;2.40;;
71558;SDS011;59382;43.852;25.952;2023-02-21T09:00:03;8.85;;;2.30;;
71558;SDS011;59382;43.852;25.952;2023-02-21T09:02:35;18.05;;;2.00;;
71558;SDS011;59382;43.852;25.952;2023-02-21T09:05:08;59.80;;;4.13;;
71558;SDS011;59382;43.852;25.952;2023-02-21T09:07:36;24.50;;;2.67;;
71558;SDS011;59382;43.852;25.952;2023-02-21T09:10:02;5.32;;;1.85;;
71558;SDS011;59382;43.852;25.952;2023-02-21T09:12:28;20.85;;;2.63;;
71558;SDS011;59382;43.852;25.952;2023-02-21T09:14:54;7.07;;;2.13;;
71558;SDS011;59382;43.852;25.952;2023-02-21T09:17:20;7.65;;;2.15;;
71558;SDS011;59382;43.852;25.952;2023-02-21T09:19:45;5.07;;;1.85;;
71558;SDS011;59382;43.852;25.952;2023-02-21T09:22:11;8.60;;;1.73;;
71558;SDS011;59382;43.852;25.952;2023-02-21T09:24:37;10.23;;;2.08;;
71558;SDS011;59382;43.852;25.952;2023-02-21T09:27:03;41.17;;;3.47;;
71558;SDS011;59382;43.852;25.952;2023-02-21T09:29:33;12.40;;;2.85;;
71558;SDS011;59382;43.852;25.952;2023-02-21T09:32:00;14.60;;;3.40;;
71558;SDS011;59382;43.852;25.952;2023-02-21T09:34:27;13.75;;;2.95;;
71558;SDS011;59382;43.852;25.952;2023-02-21T09:36:53;4.60;;;1.90;;
71558;SDS011;59382;43.852;25.952;2023-02-21T09:39:19;3.03;;;2.20;;
71558;SDS011;59382;43.852;25.952;2023-02-21T09:41:46;5.97;;;2.75;;
71558;SDS011;59382;43.852;25.952;2023-02-21T09:44:19;37.08;;;3.03;;
71558;SDS011;59382;43.852;25.952;2023-02-21T09:47:09;13.52;;;2.55;;
71558;SDS011;59382;43.852;25.952;2023-02-21T09:49:39;8.60;;;3.03;;
71558;SDS011;59382;43.852;25.952;2023-02-21T09:52:11;3.10;;;1.80;;
71558;SDS011;59382;43.852;25.952;2023-02-21T09:54:46;3.55;;;1.75;;
71558;SDS011;59382;43.852;25.952;2023-02-21T09:57:20;15.00;;;3.00;;
71558;SDS011;59382;43.852;25.952;2023-02-21T09:59:46;6.90;;;2.10;;
71558;SDS011;59382;43.852;25.952;2023-02-21T10:02:23;4.97;;;1.67;;
71558;SDS011;59382;43.852;25.952;2023-02-21T10:11:00;7.05;;;1.90;;
71558;SDS011;59382;43.852;25.952;2023-02-21T10:21:30;19.67;;;2.95;;
71558;SDS011;59382;43.852;25.952;2023-02-21T10:24:01;7.03;;;2.50;;
71558;SDS011;59382;43.852;25.952;2023-02-21T10:26:36;6.95;;;3.10;;
71558;SDS011;59382;43.852;25.952;2023-02-21T10:29:09;4.18;;;1.92;;
71558;SDS011;59382;43.852;25.952;2023-02-21T10:31:45;9.07;;;2.22;;
71558;SDS011;59382;43.852;25.952;2023-02-21T10:34:20;6.40;;;2.00;;
71558;SDS011;59382;43.852;25.952;2023-02-21T10:36:50;5.68;;;1.92;;
71558;SDS011;59382;43.852;25.952;2023-02-21T10:39:18;6.30;;;2.63;;
71558;SDS011;59382;43.852;25.952;2023-02-21T10:41:49;7.70;;;2.42;;
71558;SDS011;59382;43.852;25.952;2023-02-21T10:44:26;4.63;;;2.00;;
71558;SDS011;59382;43.852;25.952;2023-02-21T10:49:55;7.00;;;2.38;;
71558;SDS011;59382;43.852;25.952;2023-02-21T10:52:25;10.25;;;2.25;;
71558;SDS011;59382;43.852;25.952;2023-02-21T10:54:59;7.32;;;2.08;;
71558;SDS011;59382;43.852;25.952;2023-02-21T10:59:55;13.27;;;2.10;;
71558;SDS011;59382;43.852;25.952;2023-02-21T11:02:31;11.48;;;1.67;;
71558;SDS011;59382;43.852;25.952;2023-02-21T11:05:10;9.02;;;2.05;;
71558;SDS011;59382;43.852;25.952;2023-02-21T11:07:41;27.85;;;2.33;;
71558;SDS011;59382;43.852;25.952;2023-02-21T11:13:12;11.32;;;1.70;;
71558;SDS011;59382;43.852;25.952;2023-02-21T11:15:46;6.10;;;2.17;;
71558;SDS011;59382;43.852;25.952;2023-02-21T11:18:14;7.90;;;1.98;;
71558;SDS011;59382;43.852;25.952;2023-02-21T11:20:40;15.50;;;2.17;;
71558;SDS011;59382;43.852;25.952;2023-02-21T11:23:22;4.63;;;1.77;;
71558;SDS011;59382;43.852;25.952;2023-02-21T11:26:06;2.72;;;1.80;;
71558;SDS011;59382;43.852;25.952;2023-02-21T11:28:36;11.63;;;2.05;;
71558;SDS011;59382;43.852;25.952;2023-02-21T11:31:17;13.45;;;2.47;;
71558;SDS011;59382;43.852;25.952;2023-02-21T11:33:54;9.60;;;2.05;;
71558;SDS011;59382;43.852;25.952;2023-02-21T11:36:33;2.92;;;1.67;;
71558;SDS011;59382;43.852;25.952;2023-02-21T11:39:14;8.65;;;1.58;;
71558;SDS011;59382;43.852;25.952;2023-02-21T11:47:06;10.75;;;2.20;;
71558;SDS011;59382;43.852;25.952;2023-02-21T11:49:56;6.32;;;1.23;;
71558;SDS011;59382;43.852;25.952;2023-02-21T11:55:17;7.30;;;2.10;;
71558;SDS011;59382;43.852;25.952;2023-02-21T12:03:09;8.52;;;1.98;;
71558;SDS011;59382;43.852;25.952;2023-02-21T12:13:36;18.58;;;2.38;;
71558;SDS011;59382;43.852;25.952;2023-02-21T12:21:50;5.30;;;1.92;;
71558;SDS011;59382;43.852;25.952;2023-02-21T12:33:12;3.67;;;2.28;;
71558;SDS011;59382;43.852;25.952;2023-02-21T12:44:40;8.70;;;1.75;;
71558;SDS011;59382;43.852;25.952;2023-02-21T12:46:59;5.93;;;1.73;;
71558;SDS011;59382;43.852;25.952;2023-02-21T12:49:51;6.32;;;1.58;;
71558;SDS011;59382;43.852;25.952;2023-02-21T13:00:31;4.95;;;1.50;;
71558;SDS011;59382;43.852;25.952;2023-02-21T13:03:22;9.88;;;1.63;;
71558;SDS011;59382;43.852;25.952;2023-02-21T13:11:41;4.53;;;1.55;;
71558;SDS011;59382;43.852;25.952;2023-02-21T13:14:22;7.90;;;2.15;;
71558;SDS011;59382;43.852;25.952;2023-02-21T13:16:52;5.05;;;1.98;;
71558;SDS011;59382;43.852;25.952;2023-02-21T13:19:18;4.45;;;1.80;;
71558;SDS011;59382;43.852;25.952;2023-02-21T13:27:46;16.95;;;1.70;;
71558;SDS011;59382;43.852;25.952;2023-02-21T13:33:01;4.10;;;1.45;;
71558;SDS011;59382;43.852;25.952;2023-02-21T13:35:31;3.17;;;1.60;;
71558;SDS011;59382;43.852;25.952;2023-02-21T13:38:00;5.95;;;1.63;;
71558;SDS011;59382;43.852;25.952;2023-02-21T13:40:34;9.32;;;2.22;;
71558;SDS011;59382;43.852;25.952;2023-02-21T13:43:10;2.42;;;1.42;;
71558;SDS011;59382;43.852;25.952;2023-02-21T13:45:40;4.05;;;1.67;;
71558;SDS011;59382;43.852;25.952;2023-02-21T13:53:09;5.63;;;2.33;;
71558;SDS011;59382;43.852;25.952;2023-02-21T13:58:41;2.80;;;1.42;;
71558;SDS011;59382;43.852;25.952;2023-02-21T14:01:22;6.03;;;1.42;;
71558;SDS011;59382;43.852;25.952;2023-02-21T14:03:52;21.17;;;2.00;;
71558;SDS011;59382;43.852;25.952;2023-02-21T14:08:59;4.28;;;1.23;;
71558;SDS011;59382;43.852;25.952;2023-02-21T14:11:33;8.85;;;1.77;;
71558;SDS011;59382;43.852;25.952;2023-02-21T14:14:23;7.93;;;1.35;;
71558;SDS011;59382;43.852;25.952;2023-02-21T14:17:07;3.70;;;2.00;;
71558;SDS011;59382;43.852;25.952;2023-02-21T14:22:09;6.20;;;1.70;;
71558;SDS011;59382;43.852;25.952;2023-02-21T14:24:36;15.10;;;2.08;;
71558;SDS011;59382;43.852;25.952;2023-02-21T14:29:43;6.25;;;2.03;;
71558;SDS011;59382;43.852;25.952;2023-02-21T14:37:23;4.55;;;1.60;;
71558;SDS011;59382;43.852;25.952;2023-02-21T14:39:57;6.40;;;1.88;;
71558;SDS011;59382;43.852;25.952;2023-02-21T15:04:57;6.60;;;1.58;;
71558;SDS011;59382;43.852;25.952;2023-02-21T15:07:32;6.22;;;1.98;;
71558;SDS011;59382;43.852;25.952;2023-02-21T15:10:30;3.97;;;1.48;;
71558;SDS011;59382;43.852;25.952;2023-02-21T15:13:01;6.78;;;1.63;;
71558;SDS011;59382;43.852;25.952;2023-02-21T15:15:38;3.55;;;2.10;;
71558;SDS011;59382;43.852;25.952;2023-02-21T15:20:34;5.15;;;1.98;;
71558;SDS011;59382;43.852;25.952;2023-02-21T15:25:34;8.30;;;1.45;;
71558;SDS011;59382;43.852;25.952;2023-02-21T15:28:00;14.25;;;2.20;;
71558;SDS011;59382;43.852;25.952;2023-02-21T15:30:30;4.82;;;2.22;;
71558;SDS011;59382;43.852;25.952;2023-02-21T15:35:40;4.30;;;2.42;;
71558;SDS011;59382;43.852;25.952;2023-02-21T15:38:17;11.73;;;2.42;;
71558;SDS011;59382;43.852;25.952;2023-02-21T15:40:59;4.10;;;2.30;;
71558;SDS011;59382;43.852;25.952;2023-02-21T15:43:33;7.35;;;1.75;;
71558;SDS011;59382;43.852;25.952;2023-02-21T15:46:04;5.22;;;1.52;;
71558;SDS011;59382;43.852;25.952;2023-02-21T15:48:33;4.75;;;1.85;;
71558;SDS011;59382;43.852;25.952;2023-02-21T15:51:00;12.82;;;1.50;;
71558;SDS011;59382;43.852;25.952;2023-02-21T15:53:29;14.63;;;2.15;;
71558;SDS011;59382;43.852;25.952;2023-02-21T15:56:14;3.15;;;1.80;;
71558;SDS011;59382;43.852;25.952;2023-02-21T16:01:33;3.28;;;1.60;;
71558;SDS011;59382;43.852;25.952;2023-02-21T16:04:18;8.88;;;1.40;;
71558;SDS011;59382;43.852;25.952;2023-02-21T16:09:31;8.63;;;1.73;;
71558;SDS011;59382;43.852;25.952;2023-02-21T16:14:43;3.75;;;1.27;;
71558;SDS011;59382;43.852;25.952;2023-02-21T16:17:28;2.00;;;1.30;;
71558;SDS011;59382;43.852;25.952;2023-02-21T16:20:19;5.97;;;1.73;;
71558;SDS011;59382;43.852;25.952;2023-02-21T16:22:50;1.88;;;1.35;;
71558;SDS011;59382;43.852;25.952;2023-02-21T16:28:34;2.30;;;1.60;;
71558;SDS011;59382;43.852;25.952;2023-02-21T16:31:04;6.05;;;2.05;;
71558;SDS011;59382;43.852;25.952;2023-02-21T16:33:31;7.63;;;1.88;;
71558;SDS011;59382;43.852;25.952;2023-02-21T16:35:58;1.95;;;1.60;;
71558;SDS011;59382;43.852;25.952;2023-02-21T16:38:28;2.90;;;1.67;;
71558;SDS011;59382;43.852;25.952;2023-02-21T16:40:53;5.30;;;1.98;;
71558;SDS011;59382;43.852;25.952;2023-02-21T16:43:20;4.28;;;1.63;;
71558;SDS011;59382;43.852;25.952;2023-02-21T16:45:48;9.55;;;1.88;;
71558;SDS011;59382;43.852;25.952;2023-02-21T16:48:17;7.00;;;1.70;;
71558;SDS011;59382;43.852;25.952;2023-02-21T16:50:57;13.57;;;1.95;;
71558;SDS011;59382;43.852;25.952;2023-02-21T16:53:24;2.35;;;1.50;;
71558;SDS011;59382;43.852;25.952;2023-02-21T16:55:49;8.90;;;1.77;;
71558;SDS011;59382;43.852;25.952;2023-02-21T17:01:06;2.00;;;1.55;;
71558;SDS011;59382;43.852;25.952;2023-02-21T17:03:36;2.42;;;1.33;;
71558;SDS011;59382;43.852;25.952;2023-02-21T17:06:01;3.53;;;2.10;;
71558;SDS011;59382;43.852;25.952;2023-02-21T17:08:28;2.13;;;1.92;;
71558;SDS011;59382;43.852;25.952;2023-02-21T17:10:54;4.45;;;2.33;;
71558;SDS011;59382;43.852;25.952;2023-02-21T17:13:20;5.35;;;1.75;;
71558;SDS011;59382;43.852;25.952;2023-02-21T17:15:46;6.03;;;2.72;;
71558;SDS011;59382;43.852;25.952;2023-02-21T17:18:12;13.30;;;2.97;;
71558;SDS011;59382;43.852;25.952;2023-02-21T17:20:37;3.83;;;1.70;;
71558;SDS011;59382;43.852;25.952;2023-02-21T17:23:03;8.40;;;2.08;;
71558;SDS011;59382;43.852;25.952;2023-02-21T17:25:29;4.43;;;2.13;;
71558;SDS011;59382;43.852;25.952;2023-02-21T17:27:54;5.47;;;2.33;;
71558;SDS011;59382;43.852;25.952;2023-02-21T17:30:20;7.10;;;2.13;;
71558;SDS011;59382;43.852;25.952;2023-02-21T17:32:48;2.42;;;1.90;;
71558;SDS011;59382;43.852;25.952;2023-02-21T17:35:15;2.15;;;1.88;;
71558;SDS011;59382;43.852;25.952;2023-02-21T17:37:45;4.75;;;1.70;;
71558;SDS011;59382;43.852;25.952;2023-02-21T17:40:13;5.13;;;1.90;;
71558;SDS011;59382;43.852;25.952;2023-02-21T17:42:40;2.22;;;1.80;;
71558;SDS011;59382;43.852;25.952;2023-02-21T17:45:05;3.45;;;1.90;;
71558;SDS011;59382;43.852;25.952;2023-02-21T17:47:32;4.95;;;1.80;;
71558;SDS011;59382;43.852;25.952;2023-02-21T17:49:59;3.08;;;1.70;;
71558;SDS011;59382;43.852;25.952;2023-02-21T17:52:25;5.50;;;2.00;;
71558;SDS011;59382;43.852;25.952;2023-02-21T17:54:51;4.07;;;2.38;;
71558;SDS011;59382;43.852;25.952;2023-02-21T17:57:18;2.65;;;1.88;;
71558;SDS011;59382;43.852;25.952;2023-02-21T17:59:43;5.70;;;2.47;;
71558;SDS011;59382;43.852;25.952;2023-02-21T18:02:12;3.80;;;2.70;;
71558;SDS011;59382;43.852;25.952;2023-02-21T18:04:38;5.63;;;2.85;;
71558;SDS011;59382;43.852;25.952;2023-02-21T18:07:04;3.88;;;2.78;;
71558;SDS011;59382;43.852;25.952;2023-02-21T18:09:30;5.63;;;2.83;;
71558;SDS011;59382;43.852;25.952;2023-02-21T18:11:56;9.68;;;3.03;;
71558;SDS011;59382;43.852;25.952;2023-02-21T18:14:24;5.03;;;2.65;;
71558;SDS011;59382;43.852;25.952;2023-02-21T18:16:51;5.22;;;2.83;;
71558;SDS011;59382;43.852;25.952;2023-02-21T18:19:17;6.40;;;3.58;;